Terminal Aerodrome Forecast
Issued by NWS

Home | Current Version | Previous Version | Text Only | Print | Product List | Glossary On
Versions: 1 2 3 4 5 6 7 8 9 10 11 12 13 14 15 16 17 18 19 20 21 22 23 24
000
FTUS43 KJKL 011132
TAFSME
TAF
KSME 011132Z 0112/0212 VRB03KT 5SM BR OVC010
     FM011300 VRB06KT P6SM SCT010 SCT250
     FM011700 24007KT P6SM VCTS BKN030CB
     FM020200 VRB03KT 2SM -SHRA BR OVC030
     FM020900 VRB03KT 1SM SHRA BR OVC015=

USA.gov is the U.S. government's official web portal to all federal, state and local government web resources and services.